Time;durP1;ratioP1;P1;durP2;ratioP2;P2;SDS_P1;SDS_P2;PMS_P1;PMS_P2;Temp;Humidity;BMP_temperature;BMP_pressure;BME280_temperature;BME280_humidity;BME280_pressure;Samples;Min_cycle;Max_cycle;Signal;HPM_P1;HPM_P2
2022/01/06 00:00:11;;;;;;;8.65;2.03;;;;;;;2.75;95.25;101426.16;5095555;28;20019;-74
2022/01/06 00:02:37;;;;;;;9.88;3.95;;;;;;;2.75;95.49;101441.09;5095423;28;20031;-73
2022/01/06 00:05:03;;;;;;;10.45;1.90;;;;;;;2.73;95.24;101432.53;5095537;28;20391;-71
2022/01/06 00:07:29;;;;;;;15.73;4.15;;;;;;;2.67;95.12;101433.84;5076057;28;20074;-71
2022/01/06 00:09:54;;;;;;;16.35;4.00;;;;;;;2.69;95.14;101434.56;5095260;28;20071;-72
2022/01/06 00:12:25;;;;;;;9.68;2.92;;;;;;;2.66;95.04;101434.81;5095231;28;20082;-71
2022/01/06 00:15:10;;;;;;;24.38;4.60;;;;;;;2.63;94.98;101435.91;5095445;28;20566;-72
2022/01/06 00:25:33;;;;;;;13.88;2.15;;;;;;;2.51;94.90;101454.56;5080307;28;20071;-71
2022/01/06 00:27:58;;;;;;;14.27;3.80;;;;;;;2.48;95.07;101457.44;5094860;28;20326;-72
2022/01/06 00:30:24;;;;;;;13.38;4.60;;;;;;;2.45;95.11;101461.16;5094927;28;20032;-72
2022/01/06 00:32:50;;;;;;;20.17;3.55;;;;;;;2.41;95.11;101454.47;5095102;28;20502;-72
2022/01/06 00:35:16;;;;;;;13.80;1.90;;;;;;;2.40;95.44;101461.56;5095330;28;20028;-74
2022/01/06 00:37:41;;;;;;;13.95;2.47;;;;;;;2.33;95.00;101464.81;5095194;28;20143;-72
2022/01/06 00:40:07;;;;;;;15.43;3.00;;;;;;;2.32;95.00;101465.78;5093807;28;20503;-72
2022/01/06 00:42:32;;;;;;;12.35;4.35;;;;;;;2.27;95.19;101470.59;5094210;28;20674;-72
2022/01/06 00:44:58;;;;;;;12.05;1.80;;;;;;;2.23;95.20;101471.81;5091659;28;20024;-72
2022/01/06 00:47:23;;;;;;;12.00;2.33;;;;;;;2.19;95.58;101471.22;5091876;28;20115;-72
2022/01/06 00:49:48;;;;;;;8.85;2.20;;;;;;;2.12;95.32;101465.66;5092086;28;20130;-72
2022/01/06 00:52:14;;;;;;;11.15;2.00;;;;;;;2.08;95.66;101456.34;5091859;28;20066;-72
2022/01/06 00:54:39;;;;;;;8.00;1.95;;;;;;;2.14;95.81;101460.25;5090421;28;20032;-72
2022/01/06 00:57:05;;;;;;;6.53;2.50;;;;;;;2.13;95.65;101467.31;5091716;28;20023;-72
2022/01/06 00:59:30;;;;;;;9.85;2.72;;;;;;;2.12;95.92;101470.06;5090285;28;20028;-71
2022/01/06 01:01:56;;;;;;;12.52;3.72;;;;;;;2.14;95.96;101473.41;5092017;28;20064;-72
2022/01/06 01:04:21;;;;;;;15.27;4.28;;;;;;;2.10;95.99;101466.75;5091509;28;20036;-72
2022/01/06 01:06:47;;;;;;;19.98;4.05;;;;;;;2.18;96.34;101474.84;5091653;28;20072;-72
2022/01/06 01:09:12;;;;;;;9.65;3.28;;;;;;;2.19;96.22;101479.13;5091317;28;20031;-71
2022/01/06 01:11:38;;;;;;;11.02;2.83;;;;;;;2.14;96.07;101468.16;5091471;28;20123;-72
2022/01/06 01:14:18;;;;;;;11.38;2.80;;;;;;;2.17;96.35;101474.00;5091417;28;20032;-71
2022/01/06 01:16:53;;;;;;;11.52;3.63;;;;;;;2.13;96.35;101471.75;5091333;28;20024;-73
2022/01/06 01:19:19;;;;;;;13.57;2.67;;;;;;;2.09;96.18;101476.41;5091225;28;20034;-74
2022/01/06 01:21:45;;;;;;;12.57;2.80;;;;;;;2.07;96.16;101478.34;5091139;28;20025;-72
2022/01/06 01:24:10;;;;;;;13.43;1.88;;;;;;;2.01;96.01;101488.53;5090917;28;20123;-72
2022/01/06 01:26:36;;;;;;;9.45;3.55;;;;;;;1.99;96.28;101488.66;5091068;28;20103;-72
2022/01/06 01:29:01;;;;;;;15.45;3.10;;;;;;;1.95;96.59;101489.88;5091060;28;20028;-71
2022/01/06 01:31:31;;;;;;;17.55;4.03;;;;;;;1.93;96.37;101478.63;5089502;28;20031;-71
2022/01/06 01:33:59;;;;;;;16.88;4.75;;;;;;;1.94;96.47;101486.41;5091055;28;20108;-72
2022/01/06 01:36:25;;;;;;;17.35;3.55;;;;;;;1.89;96.53;101479.84;5089741;28;20390;-72
2022/01/06 01:38:51;;;;;;;22.52;3.67;;;;;;;1.90;96.60;101489.41;5089341;28;20541;-71
2022/01/06 01:41:17;;;;;;;12.38;3.17;;;;;;;1.89;96.23;101493.00;5091018;28;20044;-72
2022/01/06 01:43:46;;;;;;;15.73;2.63;;;;;;;1.86;96.54;101501.13;5090766;28;20035;-72
2022/01/06 01:46:15;;;;;;;9.40;2.97;;;;;;;1.81;96.35;101508.53;5090920;28;20470;-72
2022/01/06 01:48:47;;;;;;;12.00;2.63;;;;;;;1.76;96.19;101511.56;5090705;28;20114;-72
2022/01/06 01:51:13;;;;;;;7.68;2.30;;;;;;;1.70;96.31;101512.91;5090620;28;20032;-73
2022/01/06 01:53:38;;;;;;;13.60;3.40;;;;;;;1.65;96.43;101516.81;5090391;28;20532;-72
2022/01/06 01:56:06;;;;;;;18.83;3.13;;;;;;;1.64;96.65;101534.41;5089431;28;20053;-72
2022/01/06 01:58:33;;;;;;;10.40;3.10;;;;;;;1.59;96.12;101540.97;5090492;28;20034;-72
2022/01/06 02:00:58;;;;;;;8.88;2.60;;;;;;;1.50;96.49;101539.94;5090503;28;20032;-74
2022/01/06 02:03:24;;;;;;;15.02;2.28;;;;;;;1.47;96.71;101534.91;5090361;28;20073;-72
2022/01/06 02:05:49;;;;;;;12.10;4.68;;;;;;;1.50;97.05;101543.38;5070928;28;20048;-72
2022/01/06 02:08:14;;;;;;;8.68;1.95;;;;;;;1.47;96.68;101541.00;5070947;28;20098;-72
2022/01/06 02:10:40;;;;;;;14.57;3.45;;;;;;;1.45;96.98;101545.53;5089494;28;20086;-71
2022/01/06 02:13:05;;;;;;;15.23;3.13;;;;;;;1.45;96.92;101544.72;5090133;28;20032;-72
2022/01/06 02:15:31;;;;;;;10.45;2.40;;;;;;;1.42;97.07;101551.03;5088797;28;20032;-72
2022/01/06 02:17:56;;;;;;;8.13;2.00;;;;;;;1.39;97.42;101546.03;5090187;28;20055;-72
2022/01/06 02:20:23;;;;;;;14.52;5.38;;;;;;;1.42;97.58;101542.31;5089972;28;20019;-72
2022/01/06 02:22:49;;;;;;;12.35;3.05;;;;;;;1.44;97.32;101553.53;5090336;28;20081;-71
2022/01/06 02:25:20;;;;;;;18.80;4.88;;;;;;;1.46;97.30;101551.63;5090002;28;20051;-72
2022/01/06 02:27:48;;;;;;;14.30;3.75;;;;;;;1.44;97.54;101557.03;5070531;28;20453;-72
2022/01/06 02:30:15;;;;;;;15.30;3.05;;;;;;;1.45;97.31;101555.22;5089987;28;20055;-72
2022/01/06 02:32:41;;;;;;;11.27;3.88;;;;;;;1.45;97.58;101556.03;5089818;28;20115;-72
2022/01/06 02:35:09;;;;;;;10.68;3.58;;;;;;;1.45;97.53;101555.22;5089825;28;20024;-72
2022/01/06 02:37:35;;;;;;;9.95;3.45;;;;;;;1.41;97.30;101559.03;5089677;28;20542;-71
2022/01/06 02:40:00;;;;;;;18.17;2.60;;;;;;;1.40;97.32;101557.38;5089637;28;20131;-71
2022/01/06 02:42:27;;;;;;;10.80;2.38;;;;;;;1.38;97.29;101559.28;5089577;28;20387;-72
2022/01/06 02:44:52;;;;;;;9.15;2.95;;;;;;;1.38;97.25;101567.16;5089722;28;20115;-71
2022/01/06 02:47:18;;;;;;;16.75;3.22;;;;;;;1.38;97.26;101561.91;5089498;28;20477;-72
2022/01/06 02:49:43;;;;;;;12.43;3.90;;;;;;;1.34;97.52;101555.19;5087993;28;20029;-72
2022/01/06 02:52:09;;;;;;;20.85;3.53;;;;;;;1.35;97.23;101562.16;5089633;28;20028;-72
2022/01/06 02:54:34;;;;;;;8.77;3.30;;;;;;;1.34;97.42;101560.44;5089505;28;20113;-72
2022/01/06 02:56:59;;;;;;;9.73;3.55;;;;;;;1.29;97.31;101545.91;5089471;28;20024;-72
2022/01/06 02:59:25;;;;;;;12.38;3.80;;;;;;;1.24;97.22;101545.41;5089325;28;20032;-71
2022/01/06 03:01:50;;;;;;;8.23;2.58;;;;;;;1.18;97.39;101543.28;5088154;28;20028;-72
2022/01/06 03:04:16;;;;;;;19.42;4.22;;;;;;;1.22;97.52;101549.94;5089281;28;20028;-72
2022/01/06 03:06:42;;;;;;;14.07;2.83;;;;;;;1.20;97.75;101549.22;5088970;28;20031;-72
2022/01/06 03:09:08;;;;;;;17.50;3.95;;;;;;;1.17;97.63;101552.09;5087807;28;20123;-72
2022/01/06 03:11:39;;;;;;;14.73;3.40;;;;;;;1.18;97.60;101564.28;5089105;28;20028;-72
2022/01/06 03:14:05;;;;;;;21.63;4.07;;;;;;;1.16;97.73;101560.09;5088057;28;20044;-73
2022/01/06 03:16:30;;;;;;;9.00;2.38;;;;;;;1.14;97.58;101562.84;5089015;28;20498;-72
2022/01/06 03:18:55;;;;;;;20.23;6.30;;;;;;;1.13;97.82;101570.81;5069784;28;20032;-72
2022/01/06 03:21:21;;;;;;;8.02;2.35;;;;;;;1.11;97.71;101564.88;5069853;28;20024;-72
2022/01/06 03:23:46;;;;;;;14.93;3.42;;;;;;;1.09;97.66;101572.84;5069751;28;20127;-72
2022/01/06 03:26:11;;;;;;;12.00;3.05;;;;;;;1.07;97.58;101574.75;5069753;28;20066;-72
2022/01/06 03:28:37;;;;;;;11.10;3.10;;;;;;;1.05;97.83;101569.66;5069901;28;20059;-72
2022/01/06 03:31:03;;;;;;;11.90;2.45;;;;;;;1.00;97.48;101574.41;5069599;28;20025;-72
2022/01/06 03:33:28;;;;;;;7.97;2.60;;;;;;;1.01;97.67;101583.13;5069607;28;20036;-72
2022/01/06 03:35:53;;;;;;;12.43;3.55;;;;;;;0.99;97.94;101592.91;5088862;28;20024;-72
2022/01/06 03:38:19;;;;;;;9.18;3.28;;;;;;;0.99;98.05;101592.91;5069453;28;20724;-72
2022/01/06 03:40:44;;;;;;;9.93;2.65;;;;;;;1.03;97.89;101591.72;5069611;28;20052;-72
2022/01/06 03:43:10;;;;;;;12.95;3.97;;;;;;;1.02;97.59;101597.91;5069457;28;20506;-72
2022/01/06 03:45:35;;;;;;;10.63;2.55;;;;;;;1.00;97.80;101592.78;5069580;28;20092;-72
2022/01/06 03:48:03;;;;;;;14.00;4.30;;;;;;;0.99;97.71;101593.72;5076491;28;20029;-72
2022/01/06 03:50:29;;;;;;;11.77;3.03;;;;;;;0.94;97.87;101581.91;5088465;28;20121;-72
2022/01/06 03:52:54;;;;;;;12.68;4.65;;;;;;;0.92;97.64;101595.16;5088632;28;20116;-72
2022/01/06 03:55:20;;;;;;;8.60;3.45;;;;;;;0.90;97.50;101589.19;5088868;28;20028;-72
2022/01/06 03:57:47;;;;;;;13.45;3.63;;;;;;;0.88;97.81;101580.59;5087467;28;20036;-72
2022/01/06 04:00:18;;;;;;;17.27;3.38;;;;;;;0.87;97.52;101589.41;5088852;28;20032;-72
2022/01/06 04:02:45;;;;;;;14.75;4.07;;;;;;;0.83;97.65;101591.41;5087463;28;20028;-71
2022/01/06 04:05:12;;;;;;;26.90;5.40;;;;;;;0.83;97.92;101595.84;5088778;28;20123;-72
2022/01/06 04:07:38;;;;;;;12.77;3.92;;;;;;;0.81;97.78;101593.34;5088742;28;20036;-71
2022/01/06 04:10:06;;;;;;;13.25;3.80;;;;;;;0.80;97.92;101593.44;5088504;28;20039;-72
2022/01/06 04:12:34;;;;;;;13.93;3.22;;;;;;;0.77;97.82;101589.25;5088615;28;20025;-72
2022/01/06 04:15:00;;;;;;;15.35;3.47;;;;;;;0.75;97.81;101585.06;5088512;28;20032;-72
2022/01/06 04:17:25;;;;;;;10.02;2.60;;;;;;;0.75;97.81;101590.31;5088996;28;20032;-72
2022/01/06 04:19:50;;;;;;;13.93;3.53;;;;;;;0.73;97.84;101600.94;5091982;28;20081;-72
2022/01/06 04:22:16;;;;;;;17.02;3.95;;;;;;;0.70;98.01;101600.34;5092426;28;20028;-71
2022/01/06 04:24:42;;;;;;;13.18;3.55;;;;;;;0.67;97.85;101611.06;5091043;28;20063;-72
2022/01/06 04:27:07;;;;;;;8.45;2.60;;;;;;;0.63;98.04;101606.06;5092256;28;20047;-71
2022/01/06 04:29:32;;;;;;;14.32;3.67;;;;;;;0.63;97.97;101620.97;5092205;28;20494;-72
2022/01/06 04:31:58;;;;;;;10.93;2.42;;;;;;;0.58;98.14;101625.72;5092036;28;20043;-71
2022/01/06 04:34:23;;;;;;;8.98;2.17;;;;;;;0.57;97.80;101624.03;5092155;28;20039;-72
2022/01/06 04:36:53;;;;;;;10.77;4.20;;;;;;;0.54;98.28;101621.63;5092186;28;20028;-71
2022/01/06 04:39:19;;;;;;;14.77;2.53;;;;;;;0.50;98.08;101623.66;5091962;28;20419;-71
2022/01/06 04:41:44;;;;;;;11.43;2.13;;;;;;;0.53;98.49;101630.47;5091932;28;20085;-72
2022/01/06 04:44:10;;;;;;;26.30;4.45;;;;;;;0.51;98.52;101627.94;5090678;28;20134;-72
2022/01/06 04:46:36;;;;;;;7.68;2.58;;;;;;;0.48;98.28;101616.84;5090528;28;20035;-72
2022/01/06 04:49:03;;;;;;;7.57;2.28;;;;;;;0.44;98.16;101622.28;5091804;28;20039;-72
2022/01/06 04:51:29;;;;;;;13.95;3.03;;;;;;;0.45;98.43;101633.66;5091827;28;20406;-72
2022/01/06 04:53:55;;;;;;;15.02;3.85;;;;;;;0.44;98.31;101634.56;5091853;28;20046;-72
2022/01/06 04:56:20;;;;;;;8.23;4.78;;;;;;;0.43;98.55;101636.38;5091931;28;20489;-72
2022/01/06 04:58:46;;;;;;;5.47;2.25;;;;;;;0.41;98.50;101637.44;5091583;28;20136;-72
2022/01/06 05:01:11;;;;;;;13.70;4.35;;;;;;;0.40;98.42;101651.50;5091660;28;20032;-71
2022/01/06 05:03:36;;;;;;;13.35;2.97;;;;;;;0.38;98.56;101651.59;5091567;28;20024;-71
2022/01/06 05:06:02;;;;;;;9.23;2.60;;;;;;;0.38;98.84;101654.22;5091521;28;20028;-72
2022/01/06 05:08:27;;;;;;;4.97;2.25;;;;;;;0.38;98.60;101656.84;5091382;28;20032;-72
2022/01/06 05:10:52;;;;;;;15.45;3.38;;;;;;;0.37;98.62;101647.31;5091397;28;20028;-72
2022/01/06 05:13:18;;;;;;;14.82;2.95;;;;;;;0.38;98.67;101654.22;5091319;28;20054;-71
2022/01/06 05:15:43;;;;;;;18.25;5.45;;;;;;;0.33;98.75;101653.72;5091320;28;20139;-72
2022/01/06 05:18:09;;;;;;;17.10;3.08;;;;;;;0.35;98.78;101664.94;5090125;28;20068;-71
2022/01/06 05:20:37;;;;;;;6.57;2.35;;;;;;;0.33;98.61;101661.59;5091159;28;20112;-72
2022/01/06 05:23:03;;;;;;;9.52;3.60;;;;;;;0.32;98.91;101673.03;5091360;28;20032;-72
2022/01/06 05:25:30;;;;;;;8.77;3.28;;;;;;;0.30;98.83;101666.22;5091157;28;20719;-72
2022/01/06 05:27:55;;;;;;;12.30;2.78;;;;;;;0.22;98.93;101662.38;5071718;28;20107;-72
2022/01/06 05:30:22;;;;;;;10.05;3.08;;;;;;;0.28;98.89;101668.13;5071242;28;20119;-72
2022/01/06 05:32:48;;;;;;;8.85;1.83;;;;;;;0.26;99.23;101676.09;5090630;28;20036;-71
2022/01/06 05:35:13;;;;;;;8.48;3.30;;;;;;;0.22;98.84;101675.47;5091007;28;20024;-72
2022/01/06 05:37:38;;;;;;;12.90;2.92;;;;;;;0.22;99.15;101674.66;5090915;28;20445;-72
2022/01/06 05:40:05;;;;;;;17.25;4.32;;;;;;;0.21;99.05;101678.22;5090815;28;20509;-72
2022/01/06 05:42:30;;;;;;;12.05;2.88;;;;;;;0.17;99.14;101674.97;5089457;28;20058;-72
2022/01/06 05:44:55;;;;;;;10.10;3.33;;;;;;;0.15;99.13;101674.22;5090751;28;20024;-72
2022/01/06 05:47:21;;;;;;;10.85;2.58;;;;;;;0.13;99.16;101688.41;5090673;28;20032;-72
2022/01/06 05:49:46;;;;;;;8.13;2.50;;;;;;;0.08;99.40;101685.25;5090666;28;20547;-72
2022/01/06 05:52:11;;;;;;;7.50;2.45;;;;;;;0.11;99.15;101691.16;5090485;28;20040;-72
2022/01/06 05:54:37;;;;;;;21.63;5.22;;;;;;;0.11;99.24;101685.06;5090581;28;20040;-72
2022/01/06 05:57:03;;;;;;;8.23;1.98;;;;;;;0.11;99.36;101700.81;5090430;28;20434;-72
2022/01/06 05:59:29;;;;;;;17.13;2.60;;;;;;;0.09;99.65;101698.28;5090778;28;20028;-71
2022/01/06 06:01:55;;;;;;;17.58;3.53;;;;;;;0.10;99.54;101691.25;5090443;28;20031;-72
2022/01/06 06:04:20;;;;;;;11.55;2.33;;;;;;;0.08;99.77;101706.25;5088979;28;20078;-72
2022/01/06 06:06:45;;;;;;;10.45;2.90;;;;;;;0.09;99.49;101705.31;5090481;28;20115;-72
2022/01/06 06:09:11;;;;;;;17.08;5.65;;;;;;;0.08;99.65;101711.47;5090271;28;20024;-72
2022/01/06 06:11:37;;;;;;;13.77;2.97;;;;;;;0.07;99.63;101720.31;5090129;28;20032;-72
2022/01/06 06:14:02;;;;;;;9.52;2.70;;;;;;;0.05;99.66;101717.78;5090196;28;20119;-72
2022/01/06 06:16:28;;;;;;;12.15;2.60;;;;;;;0.09;99.61;101728.91;5090269;28;20031;-72
2022/01/06 06:18:53;;;;;;;15.43;3.70;;;;;;;0.08;99.91;101721.97;5090122;28;20039;-72
2022/01/06 06:21:18;;;;;;;15.07;3.65;;;;;;;0.08;99.81;101729.84;5090246;28;20126;-72
2022/01/06 06:23:44;;;;;;;14.68;2.97;;;;;;;0.02;99.92;101720.63;5089977;28;20036;-72
2022/01/06 06:26:09;;;;;;;16.35;4.43;;;;;;;0.08;99.86;101725.47;5090115;28;20032;-72
2022/01/06 06:28:34;;;;;;;12.70;2.70;;;;;;;0.06;99.89;101732.59;5089796;28;20031;-72
2022/01/06 06:31:00;;;;;;;11.48;2.72;;;;;;;0.01;99.83;101726.81;5090036;28;20070;-72
2022/01/06 06:33:25;;;;;;;15.20;4.82;;;;;;;-0.05;99.81;101729.88;5089887;28;20036;-72
2022/01/06 06:35:51;;;;;;;19.38;3.90;;;;;;;-0.01;99.87;101737.41;5077543;28;20035;-72
2022/01/06 06:38:16;;;;;;;7.18;2.53;;;;;;;0.01;99.86;101744.34;5070583;28;20396;-72
2022/01/06 06:40:42;;;;;;;11.98;2.83;;;;;;;0.00;99.90;101743.50;5088802;28;20036;-72
2022/01/06 06:43:12;;;;;;;20.00;3.55;;;;;;;-0.02;99.83;101743.59;5089725;28;20067;-72
2022/01/06 06:45:37;;;;;;;17.63;2.90;;;;;;;-0.08;99.83;101741.41;5089565;28;20028;-72
2022/01/06 06:48:03;;;;;;;9.57;3.13;;;;;;;-0.06;100.00;101742.13;5089626;28;20035;-72
2022/01/06 06:50:28;;;;;;;12.10;4.68;;;;;;;-0.06;99.94;101754.41;5089673;28;20032;-72
2022/01/06 06:52:54;;;;;;;14.82;3.58;;;;;;;-0.07;99.96;101752.75;5089449;28;20451;-72
2022/01/06 06:55:19;;;;;;;12.98;4.18;;;;;;;-0.10;99.95;101764.28;5089940;28;20040;-72
2022/01/06 06:57:44;;;;;;;16.13;3.53;;;;;;;-0.11;100.00;101757.34;5089299;28;20119;-72
2022/01/06 07:00:10;;;;;;;11.27;2.10;;;;;;;-0.11;100.00;101759.94;5089463;28;20459;-72
2022/01/06 07:02:36;;;;;;;26.08;5.07;;;;;;;-0.14;100.00;101765.41;5089287;28;20061;-72
2022/01/06 07:05:02;;;;;;;11.60;2.55;;;;;;;-0.14;100.00;101760.16;5070079;28;20059;-72
2022/01/06 07:07:27;;;;;;;11.70;4.07;;;;;;;-0.20;100.00;101762.38;5088908;28;20067;-72
2022/01/06 07:09:53;;;;;;;15.23;3.03;;;;;;;-0.12;100.00;101776.63;5087788;28;20506;-72
2022/01/06 07:12:18;;;;;;;8.98;3.60;;;;;;;-0.14;100.00;101777.69;5088962;28;20032;-72
2022/01/06 07:14:44;;;;;;;7.97;3.42;;;;;;;-0.17;100.00;101770.03;5089101;28;20031;-72
2022/01/06 07:17:09;;;;;;;11.70;3.50;;;;;;;-0.15;100.00;101783.88;5076483;28;20388;-72
2022/01/06 07:19:35;;;;;;;6.60;2.58;;;;;;;-0.18;100.00;101787.56;5069790;28;20449;-72
2022/01/06 07:22:00;;;;;;;13.88;4.88;;;;;;;-0.18;100.00;101791.94;5089055;28;20033;-72
2022/01/06 07:24:26;;;;;;;11.10;3.33;;;;;;;-0.18;100.00;101791.94;5089212;28;20031;-72
2022/01/06 07:26:51;;;;;;;9.75;2.72;;;;;;;-0.18;100.00;101792.78;5087799;28;20540;-72
2022/01/06 07:29:16;;;;;;;29.83;5.15;;;;;;;-0.17;100.00;101801.50;5088924;28;20154;-72
2022/01/06 07:31:42;;;;;;;12.95;4.78;;;;;;;-0.19;100.00;101798.97;5088985;28;20028;-72
2022/01/06 07:34:08;;;;;;;15.93;4.40;;;;;;;-0.19;100.00;101801.59;5089040;28;20044;-72
2022/01/06 07:36:33;;;;;;;16.13;4.63;;;;;;;-0.18;100.00;101805.03;5089040;28;20020;-73
2022/01/06 07:38:59;;;;;;;9.10;3.35;;;;;;;-0.20;100.00;101805.16;5088766;28;20028;-72
2022/01/06 07:41:24;;;;;;;10.55;3.53;;;;;;;-0.20;100.00;101812.19;5088679;28;20059;-73
2022/01/06 07:43:50;;;;;;;6.45;3.38;;;;;;;-0.23;100.00;101806.22;5088947;28;20040;-72
2022/01/06 07:46:15;;;;;;;7.40;3.17;;;;;;;-0.26;100.00;101806.41;5088838;28;20024;-73
2022/01/06 07:48:57;;;;;;;15.55;4.47;;;;;;;-0.25;100.00;101812.50;5087683;28;20032;-73
2022/01/06 07:51:27;;;;;;;9.80;3.13;;;;;;;-0.22;100.00;101812.28;5087641;28;20032;-72
2022/01/06 07:53:53;;;;;;;11.60;4.20;;;;;;;-0.20;100.00;101814.81;5073027;28;20078;-72
2022/01/06 07:56:19;;;;;;;7.30;3.05;;;;;;;-0.19;100.00;101813.84;5087665;28;20491;-72
2022/01/06 07:58:45;;;;;;;10.32;3.55;;;;;;;-0.18;100.00;101816.41;5073281;28;20032;-73
2022/01/06 08:01:11;;;;;;;14.60;4.20;;;;;;;-0.18;100.00;101818.16;5073817;28;20028;-72
2022/01/06 08:03:37;;;;;;;8.27;3.72;;;;;;;-0.20;100.00;101820.88;5092659;28;20027;-72
2022/01/06 08:06:04;;;;;;;8.30;2.70;;;;;;;-0.18;100.00;101823.41;5092598;28;20479;-72
2022/01/06 08:08:29;;;;;;;10.88;3.65;;;;;;;-0.15;100.00;101824.03;5092527;28;20478;-72
2022/01/06 08:10:55;;;;;;;10.18;3.78;;;;;;;-0.16;100.00;101813.66;5083521;28;20027;-72
2022/01/06 08:13:20;;;;;;;11.20;3.78;;;;;;;-0.14;100.00;101825.72;5073173;28;20078;-72
2022/01/06 08:15:46;;;;;;;10.80;3.72;;;;;;;-0.11;100.00;101815.00;5092459;28;20039;-73
2022/01/06 08:18:11;;;;;;;9.68;3.58;;;;;;;-0.11;100.00;101815.00;5092356;28;20039;-72
2022/01/06 08:20:38;;;;;;;11.45;3.30;;;;;;;-0.06;100.00;101814.72;5092542;28;20039;-72
2022/01/06 08:23:04;;;;;;;15.93;4.20;;;;;;;-0.01;100.00;101823.94;5071748;28;20085;-73
2022/01/06 08:25:30;;;;;;;14.38;4.32;;;;;;;0.04;100.00;101822.81;5072909;28;20036;-72
2022/01/06 08:27:55;;;;;;;12.10;4.00;;;;;;;0.09;100.00;101833.81;5073166;28;20490;-72
2022/01/06 08:30:20;;;;;;;15.52;4.00;;;;;;;0.13;100.00;101832.66;5072859;28;20029;-72
2022/01/06 08:32:46;;;;;;;25.17;6.25;;;;;;;0.16;100.00;101829.84;5077636;28;20032;-72
2022/01/06 08:35:11;;;;;;;10.68;5.35;;;;;;;0.20;100.00;101826.06;5072882;28;20029;-72
2022/01/06 08:37:37;;;;;;;15.63;5.15;;;;;;;0.23;100.00;101820.59;5086155;28;20035;-72
2022/01/06 08:40:03;;;;;;;10.68;4.95;;;;;;;0.28;100.00;101823.72;5092053;28;20056;-72
2022/01/06 08:42:28;;;;;;;14.38;5.15;;;;;;;0.29;100.00;101827.19;5092351;28;20395;-72
2022/01/06 08:44:54;;;;;;;16.50;5.50;;;;;;;0.34;100.00;101833.84;5092189;28;20035;-72
2022/01/06 08:47:19;;;;;;;14.25;6.30;;;;;;;0.35;100.00;101832.03;5092029;28;20024;-72
2022/01/06 08:49:45;;;;;;;13.25;6.15;;;;;;;0.40;100.00;101837.81;5092003;28;20024;-72
2022/01/06 08:52:10;;;;;;;15.32;6.00;;;;;;;0.43;100.00;101843.69;5088951;28;20540;-71
2022/01/06 08:54:36;;;;;;;15.82;6.97;;;;;;;0.46;100.00;101841.78;5088492;28;20024;-73
2022/01/06 08:57:01;;;;;;;13.82;7.25;;;;;;;0.51;100.00;101845.78;5091975;28;20089;-73
2022/01/06 08:59:27;;;;;;;18.17;5.68;;;;;;;0.58;100.00;101849.66;5092021;28;20024;-73
2022/01/06 09:01:52;;;;;;;10.38;5.57;;;;;;;0.60;100.00;101842.53;5091907;28;20031;-73
2022/01/06 09:04:20;;;;;;;16.17;5.97;;;;;;;0.71;100.00;101854.03;5082217;28;20213;-73
2022/01/06 09:06:50;;;;;;;22.45;5.55;;;;;;;0.74;100.00;101852.03;5091183;28;20123;-72
2022/01/06 09:09:16;;;;;;;16.23;6.00;;;;;;;0.81;100.00;101852.44;5091869;28;20039;-73
2022/01/06 09:11:42;;;;;;;14.43;6.80;;;;;;;0.86;99.59;101859.06;5090056;28;20036;-73
2022/01/06 09:14:08;;;;;;;12.15;5.47;;;;;;;0.93;99.51;101863.88;5077041;28;20033;-70
2022/01/06 09:16:33;;;;;;;16.83;5.07;;;;;;;0.97;99.95;101865.31;5087965;28;20110;-72
2022/01/06 09:18:59;;;;;;;16.80;5.90;;;;;;;1.00;99.78;101854.63;5091447;28;20062;-71
2022/01/06 09:21:24;;;;;;;13.43;4.90;;;;;;;1.09;99.73;101864.44;5089499;28;20028;-72
2022/01/06 09:23:51;;;;;;;17.58;5.47;;;;;;;1.15;99.92;101873.69;5079628;28;20518;-73
2022/01/06 09:26:17;;;;;;;25.83;9.02;;;;;;;1.21;99.57;101874.09;5075565;28;20024;-74
2022/01/06 09:28:42;;;;;;;16.80;6.70;;;;;;;1.27;99.48;101884.16;5075525;28;20028;-70
2022/01/06 09:31:08;;;;;;;13.55;5.22;;;;;;;1.33;99.63;101884.66;5076025;28;20048;-71
2022/01/06 09:33:33;;;;;;;8.82;4.72;;;;;;;1.38;99.17;101880.75;5075833;28;20491;-71
2022/01/06 09:35:58;;;;;;;13.48;4.95;;;;;;;1.42;99.36;101879.59;5074595;28;20651;-71
2022/01/06 09:38:24;;;;;;;11.40;5.70;;;;;;;1.46;99.32;101881.00;5075478;28;20915;-72
2022/01/06 09:40:49;;;;;;;19.98;7.88;;;;;;;1.55;99.41;101879.53;5071473;28;20996;-73
2022/01/06 09:43:15;;;;;;;13.82;4.88;;;;;;;1.59;98.82;101890.66;5071925;28;20368;-71
2022/01/06 09:45:42;;;;;;;15.45;6.93;;;;;;;1.54;99.01;101876.03;5071744;28;20062;-72
2022/01/06 09:48:08;;;;;;;14.85;6.10;;;;;;;1.72;98.88;101896.69;5090950;28;20040;-72
2022/01/06 09:50:35;;;;;;;15.43;6.18;;;;;;;1.77;98.61;101891.91;5074634;28;20085;-73
2022/01/06 09:53:00;;;;;;;12.70;6.20;;;;;;;1.83;98.40;101903.78;5071565;28;20036;-71
2022/01/06 09:55:26;;;;;;;17.27;7.95;;;;;;;1.91;98.62;101898.78;5071500;28;20020;-72
2022/01/06 09:57:57;;;;;;;12.85;6.22;;;;;;;1.96;98.37;101897.50;5070228;28;20024;-71
2022/01/06 10:00:24;;;;;;;19.25;7.10;;;;;;;2.03;98.18;101905.75;5090462;28;20548;-72
2022/01/06 10:02:55;;;;;;;12.02;6.13;;;;;;;2.11;98.38;101905.19;5090702;28;20081;-73
2022/01/06 10:05:21;;;;;;;17.98;6.75;;;;;;;2.14;98.05;101895.25;5087077;28;20471;-71
2022/01/06 10:07:46;;;;;;;17.25;5.80;;;;;;;2.26;97.70;101895.31;5090318;28;20089;-72
2022/01/06 10:10:13;;;;;;;11.80;6.28;;;;;;;2.30;97.45;101892.31;5090532;28;20142;-72
2022/01/06 10:12:40;;;;;;;14.88;7.50;;;;;;;2.37;97.18;101903.22;5090601;28;20031;-72
2022/01/06 10:15:21;;;;;;;20.15;7.78;;;;;;;2.45;97.20;101902.63;5070847;28;20051;-72
2022/01/06 10:17:46;;;;;;;15.52;7.78;;;;;;;2.51;97.27;101897.72;5089858;28;20032;-72
2022/01/06 10:20:15;;;;;;;22.27;7.72;;;;;;;2.58;97.30;101900.72;5090370;28;20548;-72
2022/01/06 10:22:49;;;;;;;17.02;7.68;;;;;;;2.64;97.10;101894.97;5090292;28;20038;-72
2022/01/06 10:25:16;;;;;;;17.60;7.60;;;;;;;2.69;96.85;101890.19;5090349;28;20928;-72
2022/01/06 10:27:41;;;;;;;18.90;8.90;;;;;;;2.77;96.70;101889.59;5090253;28;20024;-72
2022/01/06 10:30:09;;;;;;;13.02;5.38;;;;;;;2.84;96.57;101891.63;5090093;28;20101;-72
2022/01/06 10:32:37;;;;;;;14.35;6.65;;;;;;;2.88;96.34;101886.13;5079605;28;20388;-72
2022/01/06 10:35:04;;;;;;;19.17;6.88;;;;;;;2.98;96.30;101890.53;5079485;28;20122;-72
2022/01/06 10:37:38;;;;;;;18.77;7.53;;;;;;;3.06;96.58;101890.75;5089930;28;20028;-71
2022/01/06 10:40:22;;;;;;;11.75;6.35;;;;;;;3.14;95.77;101886.69;5088463;28;20044;-72
2022/01/06 10:42:50;;;;;;;22.30;7.38;;;;;;;3.11;95.67;101874.59;5070701;28;20025;-71
2022/01/06 10:45:22;;;;;;;17.33;6.00;;;;;;;3.24;95.59;101885.81;5089531;28;20024;-72
2022/01/06 10:47:50;;;;;;;16.30;7.80;;;;;;;3.30;95.66;101884.50;5090025;28;20029;-71
2022/01/06 10:50:20;;;;;;;14.05;6.82;;;;;;;3.37;95.49;101880.41;5089779;28;20138;-71
2022/01/06 10:52:57;;;;;;;11.65;6.00;;;;;;;3.46;95.82;101876.22;5089835;28;20043;-72
2022/01/06 10:55:28;;;;;;;16.77;6.50;;;;;;;3.55;96.19;101871.97;5089752;28;20047;-71
2022/01/06 10:58:16;;;;;;;15.97;7.33;;;;;;;3.65;95.34;101881.63;5089798;28;20102;-72
2022/01/06 11:00:45;;;;;;;16.17;6.95;;;;;;;3.72;95.87;101874.03;5089825;28;20273;-71
2022/01/06 11:03:17;;;;;;;21.30;9.20;;;;;;;3.80;95.42;101865.50;5089741;28;20552;-72
2022/01/06 11:05:45;;;;;;;11.82;5.47;;;;;;;3.87;94.63;101864.03;5089661;28;20076;-72
2022/01/06 11:08:12;;;;;;;17.60;6.85;;;;;;;3.92;94.73;101864.47;5089656;28;20024;-71
2022/01/06 11:10:46;;;;;;;19.55;7.65;;;;;;;3.97;94.76;101867.56;5089254;28;20093;-72
2022/01/06 11:13:12;;;;;;;14.70;9.60;;;;;;;4.04;94.41;101873.19;5089599;28;20058;-72
2022/01/06 11:15:38;;;;;;;14.88;6.97;;;;;;;4.06;94.42;101874.75;5089411;28;20172;-72
2022/01/06 11:18:05;;;;;;;15.85;7.60;;;;;;;4.03;94.31;101869.69;5089375;28;20122;-72
2022/01/06 11:20:32;;;;;;;17.88;7.43;;;;;;;4.14;94.31;101860.91;5089368;28;20024;-71
2022/01/06 11:22:59;;;;;;;15.57;6.43;;;;;;;4.18;93.25;101870.22;5089243;28;20061;-72
2022/01/06 11:25:36;;;;;;;11.75;5.60;;;;;;;4.16;93.31;101864.22;5089364;28;20081;-72
2022/01/06 11:28:12;;;;;;;15.95;5.55;;;;;;;4.16;92.85;101862.41;5089078;28;20387;-72